createdAt,value
2023-03-20T00:00:17.417Z,36.5578
2023-03-20T00:01:19.071Z,36.5719
2023-03-20T00:02:20.724Z,36.5227
2023-03-20T00:03:22.393Z,36.5426
2023-03-20T00:04:24.050Z,36.4752
2023-03-20T00:05:25.648Z,36.4501
2023-03-20T00:06:27.302Z,36.4432
2023-03-20T00:07:28.978Z,36.4402
2023-03-20T00:08:30.605Z,36.4313
2023-03-20T00:09:32.247Z,36.3839
2023-03-20T00:10:33.901Z,36.3596
2023-03-20T00:11:35.559Z,36.3704
2023-03-20T00:12:37.224Z,36.3356
2023-03-20T00:13:38.848Z,36.3485
2023-03-20T00:14:41.489Z,36.3016
2023-03-20T00:15:42.216Z,36.2766
2023-03-20T00:16:43.848Z,36.2667
2023-03-20T00:17:45.491Z,36.2430
2023-03-20T00:18:47.100Z,36.2400
2023-03-20T00:19:48.809Z,36.2211
2023-03-20T00:20:50.432Z,36.1845
2023-03-20T00:21:52.061Z,36.1746
2023-03-20T00:22:53.755Z,36.1518
2023-03-20T00:23:55.358Z,36.1553
2023-03-20T00:24:57.025Z,36.0992
2023-03-20T00:25:58.672Z,36.0983
2023-03-20T00:27:00.302Z,36.0796
2023-03-20T00:28:01.968Z,36.0910
2023-03-20T00:29:03.605Z,36.0772
2023-03-20T00:30:05.262Z,36.0695
2023-03-20T00:31:06.922Z,36.0119
2023-03-20T00:32:08.519Z,36.0379
2023-03-20T00:33:10.228Z,36.0069
2023-03-20T00:34:11.816Z,35.9816
2023-03-20T00:35:13.465Z,36.0014
2023-03-20T00:36:15.175Z,36.0170
2023-03-20T00:37:16.792Z,35.9570
2023-03-20T00:38:18.451Z,35.9362
2023-03-20T00:39:20.102Z,35.9327
2023-03-20T00:40:21.740Z,35.9320
2023-03-20T00:41:23.391Z,35.9271
2023-03-20T00:42:25.061Z,35.9479
2023-03-20T00:43:26.706Z,35.8936
2023-03-20T00:44:28.323Z,35.9039
2023-03-20T00:45:29.947Z,35.9009
2023-03-20T00:46:31.599Z,35.8861
2023-03-20T00:47:33.241Z,35.8800
2023-03-20T00:48:34.946Z,35.8599
2023-03-20T00:49:36.568Z,35.8427
2023-03-20T00:50:38.199Z,35.8329
2023-03-20T00:51:39.841Z,35.8214
2023-03-20T00:52:41.512Z,35.8165
2023-03-20T00:53:43.151Z,35.7663
2023-03-20T00:54:44.786Z,35.7666
2023-03-20T00:55:46.446Z,35.7749
2023-03-20T00:56:48.080Z,35.7485
2023-03-20T00:57:49.731Z,35.7297
2023-03-20T00:58:51.400Z,35.7269
2023-03-20T00:59:53.057Z,35.7374
2023-03-20T01:00:54.721Z,35.7468
2023-03-20T01:01:56.345Z,35.7274
2023-03-20T01:02:58.003Z,35.7145
2023-03-20T01:03:59.675Z,35.6808
2023-03-20T01:05:01.360Z,35.7001
2023-03-20T01:06:02.947Z,35.6699
2023-03-20T01:07:04.595Z,35.6579
2023-03-20T01:08:06.241Z,35.6418
2023-03-20T01:09:07.904Z,35.6343
2023-03-20T01:10:09.535Z,35.6351
2023-03-20T01:11:11.319Z,35.6308
2023-03-20T01:12:12.828Z,35.6544
2023-03-20T01:13:14.462Z,35.6103
2023-03-20T01:14:16.143Z,35.6088
2023-03-20T01:15:17.788Z,35.6153
2023-03-20T01:16:19.479Z,35.5733
2023-03-20T01:17:21.254Z,35.5776
2023-03-20T01:18:22.744Z,35.5732
2023-03-20T01:19:24.411Z,35.5511
2023-03-20T01:20:26.008Z,35.5781
2023-03-20T01:21:27.642Z,35.5712
2023-03-20T01:22:29.287Z,35.5383
2023-03-20T01:23:30.930Z,35.5292
2023-03-20T01:24:32.600Z,35.5375
2023-03-20T01:25:34.553Z,35.5452
2023-03-20T01:26:35.920Z,35.5466
2023-03-20T01:27:37.528Z,35.4904
2023-03-20T01:28:39.184Z,35.4874
2023-03-20T01:29:40.878Z,35.4909
2023-03-20T01:30:42.504Z,35.4997
2023-03-20T01:31:44.164Z,35.4796
2023-03-20T01:32:45.794Z,35.4969
2023-03-20T01:33:47.427Z,35.5024
2023-03-20T01:34:49.115Z,35.4601
2023-03-20T01:35:50.809Z,35.4318
2023-03-20T01:36:52.395Z,35.4323
2023-03-20T01:37:54.121Z,35.4392
2023-03-20T01:38:55.793Z,35.3995
2023-03-20T01:39:57.441Z,35.4161
2023-03-20T01:40:59.064Z,35.4317
2023-03-20T01:42:00.714Z,35.3922
2023-03-20T01:43:02.373Z,35.4078
2023-03-20T01:44:04.015Z,35.4010
2023-03-20T01:45:05.697Z,35.3912
2023-03-20T01:46:07.316Z,35.3777
2023-03-20T01:47:08.941Z,35.3592
2023-03-20T01:48:10.586Z,35.3590
2023-03-20T01:49:12.233Z,35.3340
2023-03-20T01:50:13.945Z,35.3381
2023-03-20T01:51:15.549Z,35.3426
2023-03-20T01:52:17.215Z,35.3567
2023-03-20T01:53:18.859Z,35.3222
2023-03-20T01:54:20.528Z,35.3083
2023-03-20T01:55:22.204Z,35.2743
2023-03-20T01:56:23.837Z,35.2777
2023-03-20T01:57:25.464Z,35.2743
2023-03-20T01:58:27.117Z,35.2849
2023-03-20T01:59:28.768Z,35.2885
2023-03-20T02:00:30.440Z,35.2736
2023-03-20T02:01:32.143Z,35.2410
2023-03-20T02:02:33.723Z,35.2287
2023-03-20T02:03:35.351Z,35.2266
2023-03-20T02:04:37.059Z,35.2625
2023-03-20T02:05:38.715Z,35.2721
2023-03-20T02:06:40.343Z,35.2397
2023-03-20T02:07:41.976Z,35.2322
2023-03-20T02:08:43.613Z,35.2425
2023-03-20T02:09:45.246Z,35.2106
2023-03-20T02:10:46.924Z,35.2011
2023-03-20T02:11:48.542Z,35.1984
2023-03-20T02:12:50.203Z,35.1694
2023-03-20T02:13:51.874Z,35.1810
2023-03-20T02:14:53.508Z,35.1719
2023-03-20T02:15:55.172Z,35.1655
2023-03-20T02:16:56.833Z,35.1741
2023-03-20T02:17:58.448Z,35.1257
2023-03-20T02:19:00.128Z,35.1551
2023-03-20T02:20:01.757Z,35.1383
2023-03-20T02:21:03.420Z,35.1419
2023-03-20T02:22:05.047Z,35.1322
2023-03-20T02:23:06.736Z,35.1140
2023-03-20T02:24:08.374Z,35.1071
2023-03-20T02:25:10.047Z,35.1222
2023-03-20T02:26:11.704Z,35.1175
2023-03-20T02:27:13.326Z,35.1084
2023-03-20T02:28:14.963Z,35.1209
2023-03-20T02:29:16.610Z,35.1254
2023-03-20T02:30:18.288Z,35.0780
2023-03-20T02:31:19.947Z,35.0622
2023-03-20T02:32:21.553Z,35.0548
2023-03-20T02:33:23.208Z,35.0781
2023-03-20T02:34:24.852Z,35.1350
2023-03-20T02:35:26.507Z,35.1697
2023-03-20T02:36:28.174Z,35.1485
2023-03-20T02:37:29.785Z,35.1101
2023-03-20T02:38:31.456Z,35.1044
2023-03-20T02:39:33.110Z,35.1079
2023-03-20T02:40:34.765Z,35.1682
2023-03-20T02:41:36.467Z,35.1332
2023-03-20T02:42:38.015Z,35.0878
2023-03-20T02:43:39.696Z,35.0499
2023-03-20T02:44:41.319Z,35.0571
2023-03-20T02:45:42.992Z,35.0740
2023-03-20T02:46:44.653Z,35.0431
2023-03-20T02:47:46.277Z,35.0904
2023-03-20T02:48:47.926Z,35.0791
2023-03-20T02:49:49.620Z,35.0612
2023-03-20T02:50:51.313Z,35.0661
2023-03-20T02:51:52.963Z,35.0361
2023-03-20T02:52:54.658Z,35.0545
2023-03-20T02:53:56.215Z,35.0724
2023-03-20T02:54:57.854Z,35.0625
2023-03-20T02:55:59.507Z,35.0508
2023-03-20T02:57:01.182Z,35.0255
2023-03-20T02:58:02.797Z,35.0024
2023-03-20T02:59:04.440Z,35.0302
2023-03-20T03:00:06.109Z,35.0348
2023-03-20T03:01:07.795Z,35.0708
2023-03-20T03:02:09.459Z,35.0551
2023-03-20T03:03:11.096Z,35.0256
2023-03-20T03:04:12.709Z,34.9998
2023-03-20T03:05:14.354Z,35.0074
2023-03-20T03:06:16.011Z,35.0296
2023-03-20T03:07:17.685Z,35.0418
2023-03-20T03:08:19.301Z,35.0301
2023-03-20T03:09:20.978Z,35.0343
2023-03-20T03:10:22.620Z,35.0388
2023-03-20T03:11:24.248Z,35.0721
2023-03-20T03:12:25.929Z,35.0828
2023-03-20T03:13:27.554Z,35.0530
2023-03-20T03:14:29.223Z,35.0577
2023-03-20T03:15:30.879Z,35.0616
2023-03-20T03:16:32.517Z,35.0666
2023-03-20T03:17:34.190Z,35.0514
2023-03-20T03:18:35.829Z,35.0682
2023-03-20T03:19:37.462Z,35.0743
2023-03-20T03:20:39.089Z,35.0722
2023-03-20T03:21:40.735Z,35.0949
2023-03-20T03:22:42.427Z,35.0670
2023-03-20T03:23:44.074Z,35.0681
2023-03-20T03:24:45.706Z,35.0723
2023-03-20T03:25:47.360Z,35.0700
2023-03-20T03:26:49.010Z,35.0319
2023-03-20T03:27:50.668Z,35.0534
2023-03-20T03:28:52.308Z,35.0438
2023-03-20T03:29:54.041Z,35.0438
2023-03-20T03:30:55.589Z,35.0663
2023-03-20T03:31:57.220Z,35.0783
2023-03-20T03:32:58.977Z,35.0494
2023-03-20T03:34:00.551Z,35.0555
2023-03-20T03:35:02.176Z,35.0291
2023-03-20T03:36:03.881Z,35.0463
2023-03-20T03:37:05.465Z,35.0747
2023-03-20T03:38:07.124Z,35.1456
2023-03-20T03:39:08.762Z,35.0560
2023-03-20T03:40:10.873Z,35.0464
2023-03-20T03:41:12.061Z,35.0255
2023-03-20T03:42:13.706Z,35.0288
2023-03-20T03:43:15.369Z,35.0201
2023-03-20T03:44:16.995Z,35.0413
2023-03-20T03:45:18.660Z,35.0940
2023-03-20T03:46:20.301Z,35.0654
2023-03-20T03:47:21.960Z,35.0196
2023-03-20T03:48:23.598Z,35.0373
2023-03-20T03:49:25.256Z,35.0406
2023-03-20T03:50:26.909Z,35.0247
2023-03-20T03:51:28.563Z,35.0231
2023-03-20T03:52:30.222Z,35.0535
2023-03-20T03:53:31.910Z,35.1163
2023-03-20T03:54:33.505Z,35.0620
2023-03-20T03:55:35.461Z,35.0412
2023-03-20T03:56:36.764Z,35.0648
2023-03-20T03:57:38.413Z,35.0612
2023-03-20T03:58:40.094Z,35.0220
2023-03-20T03:59:41.740Z,35.0315
2023-03-20T04:00:43.395Z,35.0535
2023-03-20T04:01:45.039Z,35.0620
2023-03-20T04:02:46.670Z,35.0476
2023-03-20T04:03:48.352Z,35.0467
2023-03-20T04:04:50.048Z,35.0323
2023-03-20T04:05:51.652Z,35.0605
2023-03-20T04:06:53.282Z,35.0641
2023-03-20T04:07:54.919Z,35.0824
2023-03-20T04:08:56.591Z,35.0557
2023-03-20T04:09:58.228Z,35.0555
2023-03-20T04:10:59.877Z,35.0656
2023-03-20T04:12:01.530Z,35.0615
2023-03-20T04:13:03.170Z,35.0453
2023-03-20T04:14:04.852Z,35.0577
2023-03-20T04:15:06.463Z,35.0827
2023-03-20T04:16:08.125Z,35.1257
2023-03-20T04:17:09.778Z,35.0900
2023-03-20T04:18:11.380Z,35.0589
2023-03-20T04:19:13.057Z,35.0890
2023-03-20T04:20:14.688Z,35.0768
2023-03-20T04:21:16.336Z,35.0758
2023-03-20T04:22:17.974Z,35.0782
2023-03-20T04:23:19.626Z,35.0569
2023-03-20T04:24:21.281Z,35.0330
2023-03-20T04:25:22.942Z,35.0544
2023-03-20T04:26:24.566Z,35.0403
2023-03-20T04:27:26.212Z,35.0037
2023-03-20T04:28:27.888Z,35.0543
2023-03-20T04:29:29.540Z,35.0233
2023-03-20T04:30:31.209Z,35.0295
2023-03-20T04:31:32.923Z,35.0180
2023-03-20T04:32:34.487Z,35.0424
2023-03-20T04:33:36.134Z,35.0546
2023-03-20T04:34:37.773Z,35.0160
2023-03-20T04:35:39.678Z,34.9942
2023-03-20T04:36:41.092Z,35.0150
2023-03-20T04:37:42.748Z,35.0189
2023-03-20T04:38:44.391Z,35.0364
2023-03-20T04:39:46.069Z,35.0104
2023-03-20T04:40:47.697Z,35.0336
2023-03-20T04:41:49.365Z,35.0411
2023-03-20T04:42:50.993Z,35.0131
2023-03-20T04:43:52.642Z,34.9942
2023-03-20T04:44:54.277Z,34.9893
2023-03-20T04:45:55.948Z,34.9660
2023-03-20T04:46:57.590Z,34.9872
2023-03-20T04:47:59.235Z,34.9985
2023-03-20T04:49:00.888Z,35.0349
2023-03-20T04:50:02.567Z,35.0200
2023-03-20T04:51:04.183Z,34.9850
2023-03-20T04:52:05.836Z,35.0087
2023-03-20T04:53:07.460Z,34.9704
2023-03-20T04:54:09.108Z,34.9638
2023-03-20T04:55:10.816Z,35.0003
2023-03-20T04:56:12.413Z,34.9829
2023-03-20T04:57:14.076Z,34.9838
2023-03-20T04:58:15.712Z,34.9616
2023-03-20T04:59:17.361Z,34.9654
2023-03-20T05:00:19.053Z,34.9388
2023-03-20T05:01:20.733Z,34.9404
2023-03-20T05:02:22.369Z,34.9235
2023-03-20T05:03:24.310Z,34.9425
2023-03-20T05:04:25.724Z,34.9051
2023-03-20T05:05:27.314Z,34.9057
2023-03-20T05:06:28.948Z,34.9329
2023-03-20T05:07:30.593Z,34.9058
2023-03-20T05:08:32.258Z,34.8832
2023-03-20T05:09:33.886Z,34.8554
2023-03-20T05:10:35.558Z,34.8580
2023-03-20T05:11:37.161Z,34.8735
2023-03-20T05:12:38.820Z,34.8634
2023-03-20T05:13:40.479Z,34.8542
2023-03-20T05:14:42.121Z,34.8364
2023-03-20T05:15:43.786Z,34.8443
2023-03-20T05:16:46.225Z,34.8470
2023-03-20T05:17:47.252Z,34.8686
2023-03-20T05:18:48.714Z,34.8711
2023-03-20T05:19:50.362Z,34.8857
2023-03-20T05:20:52.068Z,34.8735
2023-03-20T05:21:53.658Z,34.8391
2023-03-20T05:22:55.320Z,34.8856
2023-03-20T05:23:56.967Z,34.9371
2023-03-20T05:24:58.620Z,35.0346
2023-03-20T05:26:00.319Z,35.0506
2023-03-20T05:27:01.933Z,35.0997
2023-03-20T05:28:03.578Z,35.1330
2023-03-20T05:29:05.222Z,35.1618
2023-03-20T05:30:06.881Z,35.2033
2023-03-20T05:31:08.626Z,35.3011
2023-03-20T05:32:10.189Z,35.3932
2023-03-20T05:33:11.911Z,35.3914
2023-03-20T05:34:13.548Z,35.3797
2023-03-20T05:35:15.136Z,35.4770
2023-03-20T05:36:16.831Z,35.5572
2023-03-20T05:37:18.449Z,35.6675
2023-03-20T05:38:20.096Z,35.5864
2023-03-20T05:39:21.743Z,35.6166
2023-03-20T05:40:23.392Z,35.6187
2023-03-20T05:41:25.154Z,35.6143
2023-03-20T05:42:26.742Z,35.7563
2023-03-20T05:43:28.405Z,35.7654
2023-03-20T05:44:30.030Z,35.8681
2023-03-20T05:45:31.677Z,36.0727
2023-03-20T05:46:33.449Z,36.0086
2023-03-20T05:47:34.977Z,36.0159
2023-03-20T05:48:36.667Z,35.9972
2023-03-20T05:49:38.310Z,36.0480
2023-03-20T05:50:39.920Z,35.9957
2023-03-20T05:51:41.605Z,35.9394
2023-03-20T05:52:43.225Z,35.8474
2023-03-20T05:53:44.895Z,35.8364
2023-03-20T05:54:46.535Z,35.8405
2023-03-20T05:55:48.185Z,35.7999
2023-03-20T05:56:49.989Z,35.8481
2023-03-20T05:57:51.487Z,35.7820
2023-03-20T05:58:53.172Z,35.7966
2023-03-20T05:59:54.829Z,35.8105
2023-03-20T06:00:56.464Z,35.7974
2023-03-20T06:01:58.141Z,35.8057
2023-03-20T06:02:59.848Z,35.8120
2023-03-20T06:04:01.430Z,35.7844
2023-03-20T06:05:03.063Z,35.8356
2023-03-20T06:06:04.741Z,35.7824
2023-03-20T06:07:06.369Z,35.8275
2023-03-20T06:08:08.075Z,35.8432
2023-03-20T06:09:09.655Z,35.8175
2023-03-20T06:10:11.297Z,35.7735
2023-03-20T06:11:12.929Z,35.8265
2023-03-20T06:12:14.608Z,35.8091
2023-03-20T06:13:16.251Z,35.9329
2023-03-20T06:14:17.908Z,35.8866
2023-03-20T06:15:19.543Z,35.9380
2023-03-20T06:16:21.298Z,35.9154
2023-03-20T06:17:22.865Z,35.9698
2023-03-20T06:18:24.491Z,35.9761
2023-03-20T06:19:26.149Z,35.8816
2023-03-20T06:20:27.794Z,35.8398
2023-03-20T06:21:29.413Z,35.7894
2023-03-20T06:22:31.093Z,35.8147
2023-03-20T06:23:32.774Z,35.7947
2023-03-20T06:24:34.542Z,35.7955
2023-03-20T06:25:36.348Z,35.7712
2023-03-20T06:26:37.713Z,35.7166
2023-03-20T06:27:39.383Z,35.7439
2023-03-20T06:28:41.051Z,35.7330
2023-03-20T06:29:42.673Z,35.7277
2023-03-20T06:30:44.331Z,35.7361
2023-03-20T06:31:45.966Z,35.7096
2023-03-20T06:32:47.686Z,35.7270
2023-03-20T06:33:49.259Z,35.7008
2023-03-20T06:34:50.905Z,35.6657
2023-03-20T06:35:52.628Z,35.6746
2023-03-20T06:36:54.246Z,35.6707
2023-03-20T06:37:55.869Z,35.6752
2023-03-20T06:38:57.530Z,35.6263
2023-03-20T06:39:59.159Z,35.5929
2023-03-20T06:41:00.876Z,35.5749
2023-03-20T06:42:02.481Z,35.5801
2023-03-20T06:43:04.574Z,35.5902
2023-03-20T06:44:06.084Z,35.5803
2023-03-20T06:45:07.624Z,35.5735
2023-03-20T06:46:09.263Z,35.5527
2023-03-20T06:47:10.954Z,35.5700
2023-03-20T06:48:12.498Z,35.5364
2023-03-20T06:49:14.063Z,35.5174
2023-03-20T06:50:15.770Z,35.5617
2023-03-20T06:51:17.696Z,35.6160
2023-03-20T06:52:19.111Z,35.5581
2023-03-20T06:53:20.684Z,35.5776
2023-03-20T06:54:22.318Z,35.5348
2023-03-20T06:55:24.262Z,35.3493
